^^
Your Local Weather - Clay, NY Station Historical Data
Daily Summary for January 20, 2018 Units:  English    Metric   Both
« Previous Day
Next Day »
Daily Weekly Monthly Yearly Custom
  High: Low: Average:
Temperature: 45.2 °F 27.3 °F 38.5 °F
Dew Point: 29.0 °F 21.8 °F 25.7 °F
Humidity: 81% 52% 61%
Wind Speed: 7.0mph 0.0mph 2.8mph
Wind Gust: 17.0mph - -
Wind- - WSW
Pressure: 30.01 in 29.69 in -
Precipitation: 0.27 in    
Historical Graphs
 
 
Tabular Data for January 20, 2018
Time Temperature Dew Point Pressure Wind Wind Speed Wind Gust Humidity Rainfall Rate (Hourly) solar
00:06 27.3 °F 22.2 °F 29.73 in SSW 1.0 mph 5.0 mph 81% 0.00 in 0 W/m2
00:12 30.2 °F 24.2 °F 29.73 in SSW 1.0 mph 3.0 mph 78% 0.00 in 0 W/m2
00:18 34.0 °F 25.2 °F 29.72 in SSW 2.0 mph 3.0 mph 70% 0.00 in 0 W/m2
00:23 35.4 °F 25.2 °F 29.72 in SSW 2.0 mph 4.0 mph 66% 0.00 in 0 W/m2
00:30 36.3 °F 24.9 °F 29.71 in SSW 3.0 mph 3.0 mph 63% 0.00 in 0 W/m2
00:36 36.6 °F 24.4 °F 29.70 in SSW 3.0 mph 3.0 mph 61% 0.00 in 0 W/m2
00:42 37.0 °F 24.4 °F 29.71 in SSW 3.0 mph 3.0 mph 60% 0.00 in 0 W/m2
00:48 37.2 °F 24.2 °F 29.70 in SSE 3.0 mph 3.0 mph 59% 0.00 in 0 W/m2
00:54 37.2 °F 23.8 °F 29.70 in SSW 2.0 mph 2.0 mph 58% 0.00 in 0 W/m2
01:00 37.1 °F 23.7 °F 29.70 in South 3.0 mph 3.0 mph 58% 0.00 in 0 W/m2
01:06 37.1 °F 23.7 °F 29.70 in South 3.0 mph 5.0 mph 58% 0.00 in 0 W/m2
01:12 37.2 °F 23.4 °F 29.70 in SW 3.0 mph 3.0 mph 57% 0.00 in 0 W/m2
01:18 37.7 °F 23.4 °F 29.69 in South 3.0 mph 7.0 mph 56% 0.00 in 0 W/m2
01:23 37.7 °F 23.4 °F 29.69 in South 4.0 mph 5.0 mph 56% 0.00 in 0 W/m2
01:29 37.6 °F 23.3 °F 29.69 in South 3.0 mph 4.0 mph 56% 0.00 in 0 W/m2
01:36 37.6 °F 23.3 °F 29.69 in SSW 3.0 mph 4.0 mph 56% 0.00 in 0 W/m2
01:42 37.7 °F 23.4 °F 29.69 in SSW 3.0 mph 4.0 mph 56% 0.00 in 0 W/m2
01:48 37.9 °F 23.2 °F 29.70 in SSW 3.0 mph 4.0 mph 55% 0.00 in 0 W/m2
01:53 38.0 °F 23.3 °F 29.69 in South 3.0 mph 5.0 mph 55% 0.00 in 0 W/m2
02:00 37.9 °F 23.2 °F 29.69 in South 2.0 mph 3.0 mph 55% 0.00 in 0 W/m2
02:05 38.0 °F 23.3 °F 29.69 in SSW 3.0 mph 4.0 mph 55% 0.00 in 0 W/m2
02:12 38.1 °F 23.3 °F 29.70 in South 3.0 mph 3.0 mph 55% 0.00 in 0 W/m2
02:18 38.1 °F 23.3 °F 29.70 in SW 2.0 mph 6.0 mph 55% 0.00 in 0 W/m2
02:23 38.0 °F 23.3 °F 29.70 in SW 2.0 mph 2.0 mph 55% 0.00 in 0 W/m2
02:29 38.0 °F 22.8 °F 29.70 in South 2.0 mph 4.0 mph 54% 0.00 in 0 W/m2
02:36 38.1 °F 22.9 °F 29.71 in SSW 3.0 mph 4.0 mph 54% 0.00 in 0 W/m2
02:42 38.0 °F 22.8 °F 29.70 in SSW 3.0 mph 6.0 mph 54% 0.00 in 0 W/m2
02:50 38.0 °F 22.4 °F 29.70 in South 3.0 mph 3.0 mph 53% 0.00 in 0 W/m2
02:55 38.0 °F 22.4 °F 29.70 in South 4.0 mph 7.0 mph 53% 0.00 in 0 W/m2
03:02 37.9 °F 22.3 °F 29.70 in South 3.0 mph 5.0 mph 53% 0.00 in 0 W/m2
03:08 37.8 °F 22.2 °F 29.70 in SSW 3.0 mph 6.0 mph 53% 0.00 in 0 W/m2
03:14 37.9 °F 22.3 °F 29.70 in SW 3.0 mph 4.0 mph 53% 0.00 in 0 W/m2
03:20 37.8 °F 22.2 °F 29.69 in SW 4.0 mph 4.0 mph 53% 0.00 in 0 W/m2
03:25 37.8 °F 22.2 °F 29.69 in WSW 4.0 mph 9.0 mph 53% 0.00 in 0 W/m2
03:32 37.6 °F 22.4 °F 29.69 in South 3.0 mph 4.0 mph 54% 0.00 in 0 W/m2
03:38 37.7 °F 22.1 °F 29.69 in WSW 4.0 mph 4.0 mph 53% 0.00 in 0 W/m2
03:44 37.6 °F 22.0 °F 29.69 in SSW 4.0 mph 8.0 mph 53% 0.00 in 0 W/m2
03:50 37.5 °F 22.3 °F 29.69 in South 4.0 mph 4.0 mph 54% 0.00 in 0 W/m2
03:55 37.7 °F 22.1 °F 29.69 in SSW 4.0 mph 6.0 mph 53% 0.00 in 0 W/m2
04:02 37.9 °F 22.3 °F 29.69 in SW 4.0 mph 6.0 mph 53% 0.00 in 0 W/m2
04:08 37.8 °F 22.2 °F 29.69 in SSW 4.0 mph 6.0 mph 53% 0.00 in 0 W/m2
04:14 37.6 °F 22.0 °F 29.69 in SSW 4.0 mph 4.0 mph 53% 0.00 in 0 W/m2
04:19 37.5 °F 22.3 °F 29.69 in SW 3.0 mph 3.0 mph 54% 0.00 in 0 W/m2
04:26 37.2 °F 22.1 °F 29.69 in SW 3.0 mph 5.0 mph 54% 0.00 in 0 W/m2
04:32 37.2 °F 22.1 °F 29.69 in SW 4.0 mph 4.0 mph 54% 0.00 in 0 W/m2
04:38 37.1 °F 22.0 °F 29.70 in SW 3.0 mph 5.0 mph 54% 0.00 in 0 W/m2
04:43 37.0 °F 21.9 °F 29.69 in South 3.0 mph 5.0 mph 54% 0.00 in 0 W/m2
04:49 36.9 °F 21.8 °F 29.69 in SW 3.0 mph 3.0 mph 54% 0.00 in 0 W/m2
04:56 36.7 °F 22.0 °F 29.69 in SW 3.0 mph 4.0 mph 55% 0.00 in 0 W/m2
05:02 36.8 °F 22.1 °F 29.70 in South 3.0 mph 3.0 mph 55% 0.00 in 0 W/m2
05:08 36.7 °F 22.0 °F 29.70 in SSW 3.0 mph 7.0 mph 55% 0.00 in 0 W/m2
05:13 36.7 °F 22.0 °F 29.70 in South 3.0 mph 3.0 mph 55% 0.00 in 0 W/m2
05:19 36.8 °F 22.1 °F 29.70 in SSW 3.0 mph 3.0 mph 55% 0.00 in 0 W/m2
05:26 36.5 °F 21.8 °F 29.70 in WSW 2.0 mph 3.0 mph 55% 0.00 in 0 W/m2
05:32 36.4 °F 21.8 °F 29.70 in WSW 2.0 mph 4.0 mph 55% 0.00 in 0 W/m2
05:38 36.4 °F 21.8 °F 29.71 in WSW 2.0 mph 4.0 mph 55% 0.00 in 0 W/m2
05:43 36.5 °F 21.8 °F 29.72 in West 2.0 mph 3.0 mph 55% 0.00 in 0 W/m2
05:49 36.5 °F 21.8 °F 29.71 in SSW 3.0 mph 3.0 mph 55% 0.00 in 0 W/m2
05:56 36.4 °F 21.8 °F 29.72 in SSW 3.0 mph 3.0 mph 55% 0.00 in 0 W/m2
06:02 36.2 °F 22.0 °F 29.73 in SW 3.0 mph 4.0 mph 56% 0.00 in 0 W/m2
06:08 36.2 °F 22.0 °F 29.73 in SW 2.0 mph 5.0 mph 56% 0.00 in 0 W/m2
06:14 36.2 °F 22.0 °F 29.72 in SW 2.0 mph 2.0 mph 56% 0.00 in 0 W/m2
06:20 36.1 °F 21.9 °F 29.73 in SW 2.0 mph 2.0 mph 56% 0.00 in 0 W/m2
06:25 36.0 °F 22.2 °F 29.72 in SW 2.0 mph 4.0 mph 57% 0.00 in 0 W/m2
06:32 36.2 °F 22.4 °F 29.73 in WSW 3.0 mph 3.0 mph 57% 0.00 in 0 W/m2
06:38 36.2 °F 22.4 °F 29.73 in SSW 3.0 mph 3.0 mph 57% 0.00 in 0 W/m2
06:44 36.4 °F 22.6 °F 29.73 in WSW 3.0 mph 7.0 mph 57% 0.00 in 0 W/m2
06:50 36.3 °F 22.5 °F 29.74 in SW 2.0 mph 2.0 mph 57% 0.00 in 0 W/m2
06:55 36.3 °F 22.5 °F 29.74 in SSW 2.0 mph 8.0 mph 57% 0.00 in 0 W/m2
07:02 36.4 °F 22.6 °F 29.74 in SW 2.0 mph 3.0 mph 57% 0.00 in 0 W/m2
07:08 36.3 °F 22.5 °F 29.74 in WSW 2.0 mph 4.0 mph 57% 0.00 in 0 W/m2
07:16 36.4 °F 23.0 °F 29.74 in WSW 2.0 mph 3.0 mph 58% 0.00 in 0 W/m2
07:22 36.8 °F 23.4 °F 29.75 in SW 3.0 mph 3.0 mph 58% 0.00 in 0 W/m2
07:28 36.8 °F 23.4 °F 29.75 in West 2.0 mph 3.0 mph 58% 0.00 in 0 W/m2
07:34 36.8 °F 23.4 °F 29.75 in SW 3.0 mph 3.0 mph 58% 0.00 in 0 W/m2
07:40 36.8 °F 23.4 °F 29.75 in WSW 2.0 mph 2.0 mph 58% 0.00 in 7 W/m2
07:45 36.8 °F 23.4 °F 29.75 in SSW 2.0 mph 4.0 mph 58% 0.00 in 11 W/m2
07:52 37.2 °F 23.8 °F 29.75 in SW 3.0 mph 9.0 mph 58% 0.00 in 14 W/m2
07:58 37.3 °F 23.9 °F 29.76 in WSW 3.0 mph 9.0 mph 58% 0.00 in 14 W/m2
08:04 37.4 °F 24.0 °F 29.76 in WSW 3.0 mph 4.0 mph 58% 0.00 in 21 W/m2
08:09 37.6 °F 24.1 °F 29.76 in WSW 3.0 mph 5.0 mph 58% 0.00 in 30 W/m2
08:16 38.0 °F 24.5 °F 29.77 in WSW 4.0 mph 6.0 mph 58% 0.00 in 42 W/m2
08:22 38.1 °F 24.6 °F 29.77 in West 4.0 mph 6.0 mph 58% 0.00 in 49 W/m2
08:28 38.4 °F 24.5 °F 29.77 in West 4.0 mph 6.0 mph 57% 0.00 in 74 W/m2
08:33 38.8 °F 24.9 °F 29.78 in WNW 4.0 mph 8.0 mph 57% 0.00 in 125 W/m2
08:39 39.1 °F 25.1 °F 29.78 in SW 5.0 mph 5.0 mph 57% 0.00 in 121 W/m2
08:46 39.4 °F 25.0 °F 29.78 in SW 4.0 mph 5.0 mph 56% 0.00 in 128 W/m2
08:52 39.6 °F 25.2 °F 29.78 in West 4.0 mph 5.0 mph 56% 0.00 in 121 W/m2
08:58 39.8 °F 25.4 °F 29.79 in West 5.0 mph 5.0 mph 56% 0.00 in 91 W/m2
09:06 39.8 °F 25.4 °F 29.79 in WSW 5.0 mph 5.0 mph 56% 0.00 in 128 W/m2
09:12 39.9 °F 25.5 °F 29.79 in WSW 4.0 mph 4.0 mph 56% 0.00 in 148 W/m2
09:18 40.1 °F 25.6 °F 29.79 in WSW 4.0 mph 7.0 mph 56% 0.00 in 169 W/m2
09:23 40.2 °F 25.7 °F 29.79 in SW 5.0 mph 17.0 mph 56% 0.00 in 183 W/m2
09:29 40.4 °F 25.9 °F 29.80 in SW 5.0 mph 8.0 mph 56% 0.00 in 214 W/m2
09:36 40.7 °F 25.8 °F 29.80 in West 5.0 mph 8.0 mph 55% 0.00 in 253 W/m2
09:42 41.1 °F 26.1 °F 29.80 in WSW 4.0 mph 4.0 mph 55% 0.00 in 221 W/m2
09:48 40.8 °F 26.3 °F 29.80 in West 4.0 mph 5.0 mph 56% 0.00 in 246 W/m2
09:54 40.8 °F 25.9 °F 29.80 in WNW 4.0 mph 8.0 mph 55% 0.00 in 186 W/m2
10:00 40.6 °F 25.7 °F 29.80 in SW 5.0 mph 11.0 mph 55% 0.00 in 176 W/m2
10:05 40.7 °F 26.2 °F 29.80 in WNW 7.0 mph 11.0 mph 56% 0.00 in 213 W/m2
10:12 40.9 °F 26.4 °F 29.80 in WSW 5.0 mph 6.0 mph 56% 0.00 in 315 W/m2
10:18 41.3 °F 26.3 °F 29.80 in West 5.0 mph 8.0 mph 55% 0.00 in 343 W/m2
10:23 41.8 °F 26.8 °F 29.80 in WSW 5.0 mph 5.0 mph 55% 0.00 in 330 W/m2
10:28 41.6 °F 26.6 °F 29.80 in SW 5.0 mph 8.0 mph 55% 0.00 in 355 W/m2
10:34 41.7 °F 26.7 °F 29.80 in SW 6.0 mph 6.0 mph 55% 0.00 in 376 W/m2
10:39 41.9 °F 26.9 °F 29.80 in SW 6.0 mph 6.0 mph 55% 0.00 in 373 W/m2
10:46 42.1 °F 26.6 °F 29.81 in West 6.0 mph 6.0 mph 54% 0.00 in 410 W/m2
10:52 42.1 °F 26.6 °F 29.82 in WNW 6.0 mph 6.0 mph 54% 0.00 in 387 W/m2
10:58 42.2 °F 26.7 °F 29.82 in SSW 6.0 mph 15.0 mph 54% 0.00 in 417 W/m2
11:03 42.4 °F 26.9 °F 29.82 in WSW 6.0 mph 12.0 mph 54% 0.00 in 408 W/m2
11:09 42.3 °F 26.8 °F 29.81 in WNW 6.0 mph 6.0 mph 54% 0.00 in 420 W/m2
11:16 42.3 °F 26.8 °F 29.82 in SW 6.0 mph 9.0 mph 54% 0.00 in 397 W/m2
11:22 42.5 °F 27.0 °F 29.82 in West 6.0 mph 6.0 mph 54% 0.09 in 427 W/m2
11:28 42.7 °F 27.2 °F 29.82 in West 5.0 mph 6.0 mph 54% 0.11 in 452 W/m2
11:33 42.6 °F 27.1 °F 29.82 in West 6.0 mph 11.0 mph 54% 0.09 in 424 W/m2
11:39 43.0 °F 27.5 °F 29.82 in West 6.0 mph 6.0 mph 54% 0.13 in 411 W/m2
11:46 43.0 °F 27.5 °F 29.82 in WSW 5.0 mph 7.0 mph 54% 0.08 in 454 W/m2
11:52 42.7 °F 27.2 °F 29.82 in SW 6.0 mph 6.0 mph 54% 0.11 in 483 W/m2
11:58 43.1 °F 27.6 °F 29.82 in West 6.0 mph 7.0 mph 54% 0.09 in 487 W/m2
12:03 43.2 °F 27.7 °F 29.82 in WSW 5.0 mph 7.0 mph 54% 0.11 in 487 W/m2
12:09 43.5 °F 27.5 °F 29.82 in SW 5.0 mph 7.0 mph 53% 0.09 in 499 W/m2
12:16 43.4 °F 27.4 °F 29.82 in West 5.0 mph 9.0 mph 53% 0.11 in 466 W/m2
12:22 43.9 °F 27.4 °F 29.82 in West 4.0 mph 6.0 mph 52% 0.08 in 469 W/m2
12:28 44.1 °F 28.0 °F 29.82 in NW 4.0 mph 6.0 mph 53% 0.10 in 485 W/m2
12:34 44.1 °F 28.0 °F 29.82 in WSW 4.0 mph 7.0 mph 53% 0.10 in 485 W/m2
12:40 44.2 °F 27.7 °F 29.82 in NW 3.0 mph 6.0 mph 52% 0.07 in 401 W/m2
12:45 43.8 °F 27.8 °F 29.82 in West 4.0 mph 8.0 mph 53% 0.08 in 410 W/m2
12:52 44.0 °F 28.0 °F 29.82 in West 4.0 mph 8.0 mph 53% 0.08 in 475 W/m2
12:58 43.9 °F 27.9 °F 29.82 in West 5.0 mph 8.0 mph 53% 0.06 in 461 W/m2
13:04 44.2 °F 28.1 °F 29.82 in West 5.0 mph 5.0 mph 53% 0.07 in 357 W/m2
13:10 44.5 °F 28.4 °F 29.82 in SW 5.0 mph 5.0 mph 53% 0.07 in 457 W/m2
13:15 44.6 °F 28.5 °F 29.82 in West 4.0 mph 9.0 mph 53% 0.06 in 455 W/m2
13:22 44.4 °F 28.3 °F 29.82 in West 6.0 mph 6.0 mph 53% 0.06 in 431 W/m2
13:28 44.5 °F 28.4 °F 29.82 in West 5.0 mph 6.0 mph 53% 0.07 in 434 W/m2
13:34 44.7 °F 28.6 °F 29.82 in WSW 5.0 mph 5.0 mph 53% 0.06 in 432 W/m2
13:40 44.5 °F 28.4 °F 29.82 in NW 5.0 mph 5.0 mph 53% 0.04 in 425 W/m2
13:45 44.4 °F 28.3 °F 29.82 in WNW 5.0 mph 8.0 mph 53% 0.04 in 420 W/m2
13:52 44.6 °F 28.5 °F 29.82 in West 5.0 mph 5.0 mph 53% 0.04 in 410 W/m2
13:58 44.7 °F 28.6 °F 29.82 in West 4.0 mph 6.0 mph 53% 0.04 in 399 W/m2
14:04 44.6 °F 28.5 °F 29.83 in WNW 4.0 mph 5.0 mph 53% 0.04 in 383 W/m2
14:10 44.5 °F 28.9 °F 29.83 in WSW 4.0 mph 4.0 mph 54% 0.00 in 374 W/m2
14:16 45.2 °F 28.6 °F 29.83 in WSW 4.0 mph 5.0 mph 52% 0.00 in 367 W/m2
14:22 44.8 °F 28.7 °F 29.83 in West 3.0 mph 4.0 mph 53% 0.00 in 357 W/m2
14:28 44.7 °F 28.6 °F 29.83 in West 4.0 mph 5.0 mph 53% 0.00 in 345 W/m2
14:34 44.5 °F 28.9 °F 29.83 in West 4.0 mph 7.0 mph 54% 0.00 in 345 W/m2
14:40 44.4 °F 28.3 °F 29.84 in SW 5.0 mph 5.0 mph 53% 0.00 in 322 W/m2
14:45 44.3 °F 28.7 °F 29.83 in WSW 4.0 mph 5.0 mph 54% 0.00 in 311 W/m2
14:52 44.5 °F 28.9 °F 29.84 in WSW 3.0 mph 4.0 mph 54% 0.00 in 299 W/m2
14:58 44.3 °F 28.7 °F 29.84 in West 3.0 mph 5.0 mph 54% 0.00 in 287 W/m2
15:04 44.0 °F 28.9 °F 29.84 in WNW 4.0 mph 8.0 mph 55% 0.00 in 274 W/m2
15:10 43.9 °F 28.8 °F 29.84 in NW 4.0 mph 4.0 mph 55% 0.00 in 260 W/m2
15:15 43.6 °F 28.5 °F 29.85 in West 5.0 mph 7.0 mph 55% 0.00 in 251 W/m2
15:22 43.5 °F 28.4 °F 29.85 in WNW 5.0 mph 7.0 mph 55% 0.00 in 239 W/m2
15:28 43.4 °F 28.7 °F 29.85 in West 5.0 mph 7.0 mph 56% 0.00 in 221 W/m2
15:34 43.3 °F 28.6 °F 29.86 in WSW 4.0 mph 5.0 mph 56% 0.00 in 207 W/m2
15:39 43.3 °F 28.6 °F 29.85 in West 4.0 mph 4.0 mph 56% 0.00 in 192 W/m2
15:46 43.2 °F 28.5 °F 29.86 in West 4.0 mph 4.0 mph 56% 0.00 in 179 W/m2
15:52 43.2 °F 29.0 °F 29.86 in West 3.0 mph 5.0 mph 57% 0.00 in 163 W/m2
15:58 43.2 °F 28.5 °F 29.87 in West 2.0 mph 5.0 mph 56% 0.00 in 148 W/m2
16:04 43.0 °F 28.4 °F 29.87 in WSW 3.0 mph 4.0 mph 56% 0.00 in 135 W/m2
16:10 42.8 °F 28.6 °F 29.88 in West 3.0 mph 3.0 mph 57% 0.00 in 113 W/m2
16:16 42.7 °F 28.5 °F 29.88 in WSW 3.0 mph 3.0 mph 57% 0.00 in 33 W/m2
16:22 42.5 °F 28.3 °F 29.88 in WNW 2.0 mph 4.0 mph 57% 0.00 in 30 W/m2
16:28 42.2 °F 28.5 °F 29.89 in WSW 3.0 mph 4.0 mph 58% 0.00 in 25 W/m2
16:33 41.9 °F 28.6 °F 29.90 in West 3.0 mph 3.0 mph 59% 0.00 in 19 W/m2
16:40 41.6 °F 28.7 °F 29.90 in West 2.0 mph 2.0 mph 60% 0.00 in 18 W/m2
16:46 41.4 °F 28.5 °F 29.90 in WSW 1.0 mph 2.0 mph 60% 0.00 in 12 W/m2
16:52 41.1 °F 28.3 °F 29.90 in WSW 1.0 mph 2.0 mph 60% 0.00 in 9 W/m2
16:58 40.9 °F 28.5 °F 29.91 in WSW 1.0 mph 3.0 mph 61% 0.00 in 5 W/m2
17:04 40.7 °F 28.3 °F 29.91 in WSW 2.0 mph 3.0 mph 61% 0.00 in 0 W/m2
17:10 40.5 °F 28.5 °F 29.92 in WSW 1.0 mph 1.0 mph 62% 0.00 in 0 W/m2
17:16 40.3 °F 28.3 °F 29.92 in WSW 1.0 mph 1.0 mph 62% 0.00 in 0 W/m2
17:22 40.0 °F 28.4 °F 29.92 in Calm   1.0 mph 63% 0.00 in 0 W/m2
17:28 39.5 °F 27.9 °F 29.92 in Calm   1.0 mph 63% 0.00 in 0 W/m2
17:34 39.1 °F 27.9 °F 29.93 in Calm   2.0 mph 64% 0.00 in 0 W/m2
17:40 39.0 °F 28.2 °F 29.93 in WSW 1.0 mph 1.0 mph 65% 0.00 in 0 W/m2
17:46 39.0 °F 28.2 °F 29.93 in WSW 1.0 mph 3.0 mph 65% 0.00 in 0 W/m2
17:52 38.8 °F 28.0 °F 29.94 in WSW 1.0 mph 1.0 mph 65% 0.00 in 0 W/m2
17:58 38.6 °F 27.8 °F 29.94 in Calm   1.0 mph 65% 0.00 in 0 W/m2
18:03 38.4 °F 28.0 °F 29.94 in Calm     66% 0.00 in 0 W/m2
18:10 38.1 °F 27.7 °F 29.95 in Calm     66% 0.00 in 0 W/m2
18:15 37.7 °F 27.7 °F 29.95 in Calm     67% 0.00 in 0 W/m2
18:22 37.7 °F 27.7 °F 29.95 in WSW 1.0 mph 1.0 mph 67% 0.00 in 0 W/m2
18:28 38.0 °F 28.0 °F 29.95 in WSW 1.0 mph 2.0 mph 67% 0.00 in 0 W/m2
18:34 38.1 °F 28.1 °F 29.95 in WSW 1.0 mph 1.0 mph 67% 0.00 in 0 W/m2
18:39 38.0 °F 28.0 °F 29.95 in Calm     67% 0.00 in 0 W/m2
18:46 37.7 °F 27.7 °F 29.94 in Calm     67% 0.00 in 0 W/m2
18:52 37.3 °F 27.3 °F 29.94 in Calm     67% 0.00 in 0 W/m2
18:58 36.9 °F 27.3 °F 29.95 in Calm     68% 0.00 in 0 W/m2
19:04 36.5 °F 26.9 °F 29.96 in Calm     68% 0.00 in 0 W/m2
19:09 36.1 °F 26.9 °F 29.96 in Calm     69% 0.00 in 0 W/m2
19:16 35.6 °F 26.8 °F 29.96 in Calm     70% 0.00 in 0 W/m2
19:22 35.2 °F 26.4 °F 29.97 in Calm     70% 0.00 in 0 W/m2
19:28 35.1 °F 26.6 °F 29.97 in Calm     71% 0.00 in 0 W/m2
19:33 34.9 °F 26.4 °F 29.97 in Calm     71% 0.00 in 0 W/m2
19:39 34.8 °F 26.7 °F 29.97 in Calm     72% 0.00 in 0 W/m2
19:46 34.6 °F 26.5 °F 29.97 in Calm     72% 0.00 in 0 W/m2
19:52 34.4 °F 26.6 °F 29.97 in Calm     73% 0.00 in 0 W/m2
19:58 34.0 °F 26.3 °F 29.97 in Calm     73% 0.00 in 0 W/m2
20:03 33.9 °F 26.2 °F 29.97 in Calm     73% 0.00 in 0 W/m2
20:09 33.8 °F 26.4 °F 29.97 in Calm     74% 0.00 in 0 W/m2
20:16 33.7 °F 26.3 °F 29.98 in Calm     74% 0.00 in 0 W/m2
20:22 33.6 °F 26.2 °F 29.98 in Calm     74% 0.00 in 0 W/m2
20:28 33.4 °F 26.3 °F 29.98 in Calm     75% 0.00 in 0 W/m2
20:33 33.0 °F 25.9 °F 29.98 in Calm     75% 0.00 in 0 W/m2
20:39 32.7 °F 25.6 °F 29.98 in Calm     75% 0.00 in 0 W/m2
20:46 32.3 °F 25.6 °F 29.98 in Calm     76% 0.00 in 0 W/m2
20:52 32.2 °F 25.8 °F 29.98 in Calm     77% 0.00 in 0 W/m2
20:58 31.9 °F 25.5 °F 29.99 in Calm     77% 0.00 in 0 W/m2
21:03 31.8 °F 25.7 °F 29.99 in Calm   2.0 mph 78% 0.00 in 0 W/m2
21:09 32.2 °F 26.1 °F 29.99 in Calm   1.0 mph 78% 0.00 in 0 W/m2
21:16 33.2 °F 27.1 °F 29.99 in West 1.0 mph 2.0 mph 78% 0.00 in 0 W/m2
21:22 33.9 °F 27.4 °F 29.99 in West 1.0 mph 2.0 mph 77% 0.00 in 0 W/m2
21:29 34.0 °F 26.9 °F 30.00 in SW 1.0 mph 1.0 mph 75% 0.00 in 0 W/m2
21:35 34.0 °F 26.9 °F 29.99 in SW 1.0 mph 2.0 mph 75% 0.00 in 0 W/m2
21:42 34.1 °F 27.0 °F 29.99 in WSW 2.0 mph 2.0 mph 75% 0.00 in 0 W/m2
21:48 34.1 °F 27.0 °F 29.99 in WSW 2.0 mph 2.0 mph 75% 0.00 in 0 W/m2
21:54 34.1 °F 27.0 °F 29.99 in SW 2.0 mph 2.0 mph 75% 0.00 in 0 W/m2
21:59 34.1 °F 27.0 °F 29.99 in WSW 2.0 mph 3.0 mph 75% 0.00 in 0 W/m2
22:05 34.2 °F 27.1 °F 29.99 in SW 2.0 mph 4.0 mph 75% 0.00 in 0 W/m2
22:12 34.1 °F 27.0 °F 29.99 in WSW 2.0 mph 2.0 mph 75% 0.00 in 0 W/m2
22:18 34.1 °F 27.0 °F 29.99 in WSW 2.0 mph 2.0 mph 75% 0.00 in 0 W/m2
22:24 34.1 °F 27.0 °F 29.99 in WSW 1.0 mph 2.0 mph 75% 0.00 in 0 W/m2
22:30 34.1 °F 27.0 °F 29.99 in SW 2.0 mph 2.0 mph 75% 0.00 in 0 W/m2
22:35 34.0 °F 26.9 °F 29.99 in WSW 2.0 mph 7.0 mph 75% 0.00 in 0 W/m2
22:42 34.1 °F 27.0 °F 29.99 in WSW 3.0 mph 3.0 mph 75% 0.00 in 0 W/m2
22:48 33.9 °F 26.8 °F 29.99 in WSW 2.0 mph 4.0 mph 75% 0.00 in 0 W/m2
22:54 33.7 °F 26.6 °F 29.99 in WSW 1.0 mph 2.0 mph 75% 0.00 in 0 W/m2
22:59 33.6 °F 26.8 °F 29.99 in SW 1.0 mph 1.0 mph 76% 0.00 in 0 W/m2
23:05 33.6 °F 26.8 °F 29.99 in SW 2.0 mph 2.0 mph 76% 0.00 in 0 W/m2
23:12 33.5 °F 26.7 °F 29.99 in SW 2.0 mph 3.0 mph 76% 0.00 in 0 W/m2
23:18 33.5 °F 26.7 °F 29.99 in SW 2.0 mph 3.0 mph 76% 0.00 in 0 W/m2
23:24 33.4 °F 26.6 °F 30.00 in WSW 2.0 mph 4.0 mph 76% 0.00 in 0 W/m2
23:29 33.4 °F 27.0 °F 30.00 in WSW 1.0 mph 1.0 mph 77% 0.00 in 0 W/m2
23:36 33.3 °F 26.5 °F 30.00 in WSW 1.0 mph 2.0 mph 76% 0.00 in 0 W/m2
23:42 33.2 °F 26.8 °F 30.00 in WSW 1.0 mph 1.0 mph 77% 0.00 in 0 W/m2
23:48 33.3 °F 26.9 °F 30.01 in WSW 2.0 mph 3.0 mph 77% 0.00 in 0 W/m2
23:53 33.4 °F 27.0 °F 30.01 in WSW 1.0 mph 2.0 mph 77% 0.00 in 0 W/m2
23:59 33.3 °F 26.9 °F 30.01 in WSW 1.0 mph 3.0 mph 77% 0.00 in 0 W/m2
Country Meadow, Clay, NY, USA
Compliments of Weather Underground - 2 mb